sensor_id;sensor_type;location;lat;lon;timestamp;P1;durP1;ratioP1;P2;durP2;ratioP2
16689;SDS011;8458;52.220;9.884;2022-09-16T00:01:29;1.00;;;0.47;;
16689;SDS011;8458;52.220;9.884;2022-09-16T00:03:56;0.60;;;0.30;;
16689;SDS011;8458;52.220;9.884;2022-09-16T00:06:23;1.37;;;0.57;;
16689;SDS011;8458;52.220;9.884;2022-09-16T00:08:51;1.20;;;0.50;;
16689;SDS011;8458;52.220;9.884;2022-09-16T00:11:19;0.60;;;0.40;;
16689;SDS011;8458;52.220;9.884;2022-09-16T00:13:47;1.93;;;0.50;;
16689;SDS011;8458;52.220;9.884;2022-09-16T00:16:15;1.60;;;0.70;;
16689;SDS011;8458;52.220;9.884;2022-09-16T00:18:43;1.27;;;0.73;;
16689;SDS011;8458;52.220;9.884;2022-09-16T00:21:10;1.53;;;0.70;;
16689;SDS011;8458;52.220;9.884;2022-09-16T00:23:36;2.33;;;1.00;;
16689;SDS011;8458;52.220;9.884;2022-09-16T00:26:03;1.57;;;1.20;;
16689;SDS011;8458;52.220;9.884;2022-09-16T00:28:30;1.40;;;1.00;;
16689;SDS011;8458;52.220;9.884;2022-09-16T00:30:58;3.17;;;1.40;;
16689;SDS011;8458;52.220;9.884;2022-09-16T00:33:25;1.67;;;1.20;;
16689;SDS011;8458;52.220;9.884;2022-09-16T00:35:52;1.37;;;1.20;;
16689;SDS011;8458;52.220;9.884;2022-09-16T00:38:28;2.30;;;1.47;;
16689;SDS011;8458;52.220;9.884;2022-09-16T00:40:55;2.07;;;1.30;;
16689;SDS011;8458;52.220;9.884;2022-09-16T00:43:21;2.70;;;1.53;;
16689;SDS011;8458;52.220;9.884;2022-09-16T00:45:48;1.93;;;1.40;;
16689;SDS011;8458;52.220;9.884;2022-09-16T00:48:23;1.63;;;1.40;;
16689;SDS011;8458;52.220;9.884;2022-09-16T00:50:53;2.00;;;1.20;;
16689;SDS011;8458;52.220;9.884;2022-09-16T00:53:23;2.30;;;1.10;;
16689;SDS011;8458;52.220;9.884;2022-09-16T00:55:52;2.17;;;1.27;;
16689;SDS011;8458;52.220;9.884;2022-09-16T00:58:21;2.83;;;1.17;;
16689;SDS011;8458;52.220;9.884;2022-09-16T01:00:53;2.80;;;1.20;;
16689;SDS011;8458;52.220;9.884;2022-09-16T01:03:19;1.90;;;1.10;;
16689;SDS011;8458;52.220;9.884;2022-09-16T01:05:47;2.40;;;1.10;;
16689;SDS011;8458;52.220;9.884;2022-09-16T01:08:15;2.00;;;1.03;;
16689;SDS011;8458;52.220;9.884;2022-09-16T01:10:42;1.63;;;1.20;;
16689;SDS011;8458;52.220;9.884;2022-09-16T01:13:09;2.43;;;1.10;;
16689;SDS011;8458;52.220;9.884;2022-09-16T01:15:40;3.03;;;1.40;;
16689;SDS011;8458;52.220;9.884;2022-09-16T01:18:16;3.60;;;1.30;;
16689;SDS011;8458;52.220;9.884;2022-09-16T01:33:12;2.23;;;1.10;;
16689;SDS011;8458;52.220;9.884;2022-09-16T01:35:49;3.23;;;1.50;;
16689;SDS011;8458;52.220;9.884;2022-09-16T01:38:32;1.30;;;1.00;;
16689;SDS011;8458;52.220;9.884;2022-09-16T01:41:12;2.27;;;1.10;;
16689;SDS011;8458;52.220;9.884;2022-09-16T01:43:48;2.77;;;1.07;;
16689;SDS011;8458;52.220;9.884;2022-09-16T01:46:21;2.13;;;1.00;;
16689;SDS011;8458;52.220;9.884;2022-09-16T01:48:59;1.90;;;1.30;;
16689;SDS011;8458;52.220;9.884;2022-09-16T01:51:29;4.03;;;1.20;;
16689;SDS011;8458;52.220;9.884;2022-09-16T01:54:03;3.47;;;1.40;;
16689;SDS011;8458;52.220;9.884;2022-09-16T01:56:36;2.27;;;1.10;;
16689;SDS011;8458;52.220;9.884;2022-09-16T01:59:08;2.27;;;1.20;;
16689;SDS011;8458;52.220;9.884;2022-09-16T02:01:37;3.60;;;1.10;;
16689;SDS011;8458;52.220;9.884;2022-09-16T02:04:09;2.73;;;1.03;;
16689;SDS011;8458;52.220;9.884;2022-09-16T02:06:40;2.07;;;1.00;;
16689;SDS011;8458;52.220;9.884;2022-09-16T02:09:10;2.87;;;1.07;;
16689;SDS011;8458;52.220;9.884;2022-09-16T02:11:40;3.47;;;1.33;;
16689;SDS011;8458;52.220;9.884;2022-09-16T02:14:11;3.07;;;1.00;;
16689;SDS011;8458;52.220;9.884;2022-09-16T02:16:41;7.10;;;1.63;;
16689;SDS011;8458;52.220;9.884;2022-09-16T02:19:13;1.10;;;0.80;;
16689;SDS011;8458;52.220;9.884;2022-09-16T02:21:45;2.37;;;0.90;;
16689;SDS011;8458;52.220;9.884;2022-09-16T02:24:12;1.43;;;0.90;;
16689;SDS011;8458;52.220;9.884;2022-09-16T02:26:43;2.60;;;1.00;;
16689;SDS011;8458;52.220;9.884;2022-09-16T02:29:14;1.17;;;0.90;;
16689;SDS011;8458;52.220;9.884;2022-09-16T02:31:46;1.63;;;0.77;;
16689;SDS011;8458;52.220;9.884;2022-09-16T02:34:17;1.53;;;0.90;;
16689;SDS011;8458;52.220;9.884;2022-09-16T02:36:48;1.63;;;0.90;;
16689;SDS011;8458;52.220;9.884;2022-09-16T02:39:19;2.20;;;0.90;;
16689;SDS011;8458;52.220;9.884;2022-09-16T02:41:52;1.87;;;1.03;;
16689;SDS011;8458;52.220;9.884;2022-09-16T02:44:21;1.57;;;1.00;;
16689;SDS011;8458;52.220;9.884;2022-09-16T02:46:50;1.47;;;1.00;;
16689;SDS011;8458;52.220;9.884;2022-09-16T02:49:24;2.23;;;1.13;;
16689;SDS011;8458;52.220;9.884;2022-09-16T02:51:56;1.57;;;1.20;;
16689;SDS011;8458;52.220;9.884;2022-09-16T02:54:27;2.07;;;1.20;;
16689;SDS011;8458;52.220;9.884;2022-09-16T02:57:00;1.80;;;1.17;;
16689;SDS011;8458;52.220;9.884;2022-09-16T02:59:28;2.20;;;1.30;;
16689;SDS011;8458;52.220;9.884;2022-09-16T03:01:55;1.63;;;1.20;;
16689;SDS011;8458;52.220;9.884;2022-09-16T03:04:22;1.97;;;1.23;;
16689;SDS011;8458;52.220;9.884;2022-09-16T03:06:49;2.67;;;1.47;;
16689;SDS011;8458;52.220;9.884;2022-09-16T03:09:16;4.03;;;1.47;;
16689;SDS011;8458;52.220;9.884;2022-09-16T03:12:00;2.30;;;1.50;;
16689;SDS011;8458;52.220;9.884;2022-09-16T03:14:48;2.17;;;1.50;;
16689;SDS011;8458;52.220;9.884;2022-09-16T03:17:33;2.30;;;1.53;;
16689;SDS011;8458;52.220;9.884;2022-09-16T03:20:26;2.73;;;1.40;;
16689;SDS011;8458;52.220;9.884;2022-09-16T03:22:59;1.87;;;1.20;;
16689;SDS011;8458;52.220;9.884;2022-09-16T03:25:38;2.43;;;1.33;;
16689;SDS011;8458;52.220;9.884;2022-09-16T03:28:14;2.00;;;1.33;;
16689;SDS011;8458;52.220;9.884;2022-09-16T03:30:45;1.63;;;1.40;;
16689;SDS011;8458;52.220;9.884;2022-09-16T03:33:18;2.13;;;1.47;;
16689;SDS011;8458;52.220;9.884;2022-09-16T03:35:52;1.60;;;1.20;;
16689;SDS011;8458;52.220;9.884;2022-09-16T03:38:23;2.33;;;1.23;;
16689;SDS011;8458;52.220;9.884;2022-09-16T03:40:49;3.83;;;1.20;;
16689;SDS011;8458;52.220;9.884;2022-09-16T03:43:17;2.13;;;1.10;;
16689;SDS011;8458;52.220;9.884;2022-09-16T03:45:43;1.93;;;1.10;;
16689;SDS011;8458;52.220;9.884;2022-09-16T03:48:10;1.60;;;1.03;;
16689;SDS011;8458;52.220;9.884;2022-09-16T03:50:37;1.70;;;1.33;;
16689;SDS011;8458;52.220;9.884;2022-09-16T03:53:06;1.50;;;1.17;;
16689;SDS011;8458;52.220;9.884;2022-09-16T03:55:32;1.60;;;1.30;;
16689;SDS011;8458;52.220;9.884;2022-09-16T03:57:59;2.50;;;1.20;;
16689;SDS011;8458;52.220;9.884;2022-09-16T04:00:25;3.13;;;1.33;;
16689;SDS011;8458;52.220;9.884;2022-09-16T04:02:53;3.07;;;1.40;;
16689;SDS011;8458;52.220;9.884;2022-09-16T04:05:20;1.90;;;1.20;;
16689;SDS011;8458;52.220;9.884;2022-09-16T04:07:47;5.07;;;1.50;;
16689;SDS011;8458;52.220;9.884;2022-09-16T04:10:15;1.17;;;1.07;;
16689;SDS011;8458;52.220;9.884;2022-09-16T04:12:41;2.87;;;1.40;;
16689;SDS011;8458;52.220;9.884;2022-09-16T04:15:08;2.37;;;1.60;;
16689;SDS011;8458;52.220;9.884;2022-09-16T04:17:35;2.33;;;1.40;;
16689;SDS011;8458;52.220;9.884;2022-09-16T04:20:02;2.10;;;1.30;;
16689;SDS011;8458;52.220;9.884;2022-09-16T04:22:29;2.33;;;1.50;;
16689;SDS011;8458;52.220;9.884;2022-09-16T04:24:56;1.40;;;1.20;;
16689;SDS011;8458;52.220;9.884;2022-09-16T04:27:24;2.07;;;1.50;;
16689;SDS011;8458;52.220;9.884;2022-09-16T04:29:51;2.17;;;1.50;;
16689;SDS011;8458;52.220;9.884;2022-09-16T04:32:17;2.17;;;1.53;;
16689;SDS011;8458;52.220;9.884;2022-09-16T04:34:44;1.70;;;1.50;;
16689;SDS011;8458;52.220;9.884;2022-09-16T04:37:10;2.87;;;1.70;;
16689;SDS011;8458;52.220;9.884;2022-09-16T04:39:37;3.13;;;1.67;;
16689;SDS011;8458;52.220;9.884;2022-09-16T04:42:03;1.70;;;1.60;;
16689;SDS011;8458;52.220;9.884;2022-09-16T04:44:32;1.50;;;1.40;;
16689;SDS011;8458;52.220;9.884;2022-09-16T04:46:58;2.60;;;1.33;;
16689;SDS011;8458;52.220;9.884;2022-09-16T04:49:25;2.50;;;1.57;;
16689;SDS011;8458;52.220;9.884;2022-09-16T04:51:51;2.07;;;1.47;;
16689;SDS011;8458;52.220;9.884;2022-09-16T04:54:18;1.80;;;1.33;;
16689;SDS011;8458;52.220;9.884;2022-09-16T04:56:45;1.93;;;1.23;;
16689;SDS011;8458;52.220;9.884;2022-09-16T04:59:12;1.93;;;1.50;;
16689;SDS011;8458;52.220;9.884;2022-09-16T05:01:40;1.73;;;1.10;;
16689;SDS011;8458;52.220;9.884;2022-09-16T05:04:08;1.77;;;1.30;;
16689;SDS011;8458;52.220;9.884;2022-09-16T05:06:37;3.73;;;1.20;;
16689;SDS011;8458;52.220;9.884;2022-09-16T05:09:05;1.67;;;1.20;;
16689;SDS011;8458;52.220;9.884;2022-09-16T05:11:34;2.63;;;1.30;;
16689;SDS011;8458;52.220;9.884;2022-09-16T05:14:03;1.65;;;1.25;;
16689;SDS011;8458;52.220;9.884;2022-09-16T05:16:31;2.33;;;1.10;;
16689;SDS011;8458;52.220;9.884;2022-09-16T05:19:01;1.33;;;1.00;;
16689;SDS011;8458;52.220;9.884;2022-09-16T05:21:28;1.63;;;1.13;;
16689;SDS011;8458;52.220;9.884;2022-09-16T05:23:58;1.83;;;0.90;;
16689;SDS011;8458;52.220;9.884;2022-09-16T05:26:26;2.90;;;1.00;;
16689;SDS011;8458;52.220;9.884;2022-09-16T05:28:55;1.83;;;1.10;;
16689;SDS011;8458;52.220;9.884;2022-09-16T05:31:25;1.00;;;0.90;;
16689;SDS011;8458;52.220;9.884;2022-09-16T05:33:53;1.10;;;0.93;;
16689;SDS011;8458;52.220;9.884;2022-09-16T05:36:22;1.13;;;0.97;;
16689;SDS011;8458;52.220;9.884;2022-09-16T05:38:49;1.43;;;0.90;;
16689;SDS011;8458;52.220;9.884;2022-09-16T05:41:15;1.50;;;0.97;;
16689;SDS011;8458;52.220;9.884;2022-09-16T05:43:42;1.50;;;0.80;;
16689;SDS011;8458;52.220;9.884;2022-09-16T05:46:16;1.37;;;1.00;;
16689;SDS011;8458;52.220;9.884;2022-09-16T05:48:44;2.67;;;0.80;;
16689;SDS011;8458;52.220;9.884;2022-09-16T05:51:12;2.00;;;1.20;;
16689;SDS011;8458;52.220;9.884;2022-09-16T05:53:41;1.30;;;0.90;;
16689;SDS011;8458;52.220;9.884;2022-09-16T05:56:09;1.63;;;1.10;;
16689;SDS011;8458;52.220;9.884;2022-09-16T05:58:36;1.43;;;0.90;;
16689;SDS011;8458;52.220;9.884;2022-09-16T06:01:04;1.60;;;1.00;;
16689;SDS011;8458;52.220;9.884;2022-09-16T06:03:32;1.90;;;1.00;;
16689;SDS011;8458;52.220;9.884;2022-09-16T06:06:00;1.50;;;1.10;;
16689;SDS011;8458;52.220;9.884;2022-09-16T06:08:27;1.77;;;1.07;;
16689;SDS011;8458;52.220;9.884;2022-09-16T06:10:58;1.13;;;1.03;;
16689;SDS011;8458;52.220;9.884;2022-09-16T06:13:25;1.20;;;1.10;;
16689;SDS011;8458;52.220;9.884;2022-09-16T06:15:52;3.33;;;1.40;;
16689;SDS011;8458;52.220;9.884;2022-09-16T06:18:19;1.33;;;1.23;;
16689;SDS011;8458;52.220;9.884;2022-09-16T06:20:45;2.73;;;1.23;;
16689;SDS011;8458;52.220;9.884;2022-09-16T06:23:12;1.20;;;1.10;;
16689;SDS011;8458;52.220;9.884;2022-09-16T06:25:39;2.03;;;1.20;;
16689;SDS011;8458;52.220;9.884;2022-09-16T06:28:07;1.10;;;0.90;;
16689;SDS011;8458;52.220;9.884;2022-09-16T06:30:35;2.23;;;1.00;;
16689;SDS011;8458;52.220;9.884;2022-09-16T06:33:02;2.20;;;1.00;;
16689;SDS011;8458;52.220;9.884;2022-09-16T06:35:28;2.70;;;1.00;;
16689;SDS011;8458;52.220;9.884;2022-09-16T06:37:55;1.17;;;0.80;;
16689;SDS011;8458;52.220;9.884;2022-09-16T06:40:21;1.50;;;0.90;;
16689;SDS011;8458;52.220;9.884;2022-09-16T06:42:48;1.67;;;1.00;;
16689;SDS011;8458;52.220;9.884;2022-09-16T06:45:19;1.17;;;0.80;;
16689;SDS011;8458;52.220;9.884;2022-09-16T06:47:45;2.17;;;0.93;;
16689;SDS011;8458;52.220;9.884;2022-09-16T06:50:12;0.70;;;0.63;;
16689;SDS011;8458;52.220;9.884;2022-09-16T06:52:38;1.47;;;1.00;;
16689;SDS011;8458;52.220;9.884;2022-09-16T06:55:05;1.63;;;0.70;;
16689;SDS011;8458;52.220;9.884;2022-09-16T06:57:32;1.73;;;0.90;;
16689;SDS011;8458;52.220;9.884;2022-09-16T06:59:58;2.70;;;0.80;;
16689;SDS011;8458;52.220;9.884;2022-09-16T07:02:26;1.33;;;0.60;;
16689;SDS011;8458;52.220;9.884;2022-09-16T07:04:55;1.97;;;0.50;;
16689;SDS011;8458;52.220;9.884;2022-09-16T07:07:21;2.03;;;0.67;;
16689;SDS011;8458;52.220;9.884;2022-09-16T07:09:48;1.00;;;0.60;;
16689;SDS011;8458;52.220;9.884;2022-09-16T07:12:15;1.30;;;0.57;;
16689;SDS011;8458;52.220;9.884;2022-09-16T07:14:42;1.23;;;0.80;;
16689;SDS011;8458;52.220;9.884;2022-09-16T07:17:08;1.33;;;0.60;;
16689;SDS011;8458;52.220;9.884;2022-09-16T07:19:36;2.17;;;0.60;;
16689;SDS011;8458;52.220;9.884;2022-09-16T07:22:02;1.23;;;0.70;;
16689;SDS011;8458;52.220;9.884;2022-09-16T07:24:29;0.97;;;0.70;;
16689;SDS011;8458;52.220;9.884;2022-09-16T07:26:56;3.20;;;0.80;;
16689;SDS011;8458;52.220;9.884;2022-09-16T07:29:22;1.97;;;0.80;;
16689;SDS011;8458;52.220;9.884;2022-09-16T07:31:49;1.30;;;0.80;;
16689;SDS011;8458;52.220;9.884;2022-09-16T07:34:16;1.60;;;0.60;;
16689;SDS011;8458;52.220;9.884;2022-09-16T07:36:44;1.80;;;0.80;;
16689;SDS011;8458;52.220;9.884;2022-09-16T07:39:13;1.67;;;1.03;;
16689;SDS011;8458;52.220;9.884;2022-09-16T07:41:42;1.77;;;0.80;;
16689;SDS011;8458;52.220;9.884;2022-09-16T07:44:11;1.43;;;0.60;;
16689;SDS011;8458;52.220;9.884;2022-09-16T07:46:39;1.10;;;0.80;;
16689;SDS011;8458;52.220;9.884;2022-09-16T07:49:06;1.03;;;0.67;;
16689;SDS011;8458;52.220;9.884;2022-09-16T07:51:34;1.40;;;0.77;;
16689;SDS011;8458;52.220;9.884;2022-09-16T07:54:02;1.40;;;0.83;;
16689;SDS011;8458;52.220;9.884;2022-09-16T07:56:31;1.63;;;0.60;;
16689;SDS011;8458;52.220;9.884;2022-09-16T07:58:59;1.17;;;0.53;;
16689;SDS011;8458;52.220;9.884;2022-09-16T08:01:27;1.63;;;0.60;;
16689;SDS011;8458;52.220;9.884;2022-09-16T08:03:55;0.90;;;0.40;;
16689;SDS011;8458;52.220;9.884;2022-09-16T08:06:24;1.97;;;0.73;;
16689;SDS011;8458;52.220;9.884;2022-09-16T08:08:53;2.67;;;0.77;;
16689;SDS011;8458;52.220;9.884;2022-09-16T08:11:22;2.23;;;0.60;;
16689;SDS011;8458;52.220;9.884;2022-09-16T08:13:49;1.03;;;0.47;;
16689;SDS011;8458;52.220;9.884;2022-09-16T08:16:16;1.53;;;0.60;;
16689;SDS011;8458;52.220;9.884;2022-09-16T08:18:44;1.70;;;0.70;;
16689;SDS011;8458;52.220;9.884;2022-09-16T08:21:12;1.43;;;0.50;;
16689;SDS011;8458;52.220;9.884;2022-09-16T08:23:40;2.43;;;0.57;;
16689;SDS011;8458;52.220;9.884;2022-09-16T08:26:07;2.30;;;0.50;;
16689;SDS011;8458;52.220;9.884;2022-09-16T08:28:37;2.77;;;0.53;;
16689;SDS011;8458;52.220;9.884;2022-09-16T08:31:05;1.70;;;0.83;;
16689;SDS011;8458;52.220;9.884;2022-09-16T08:33:32;1.67;;;0.60;;
16689;SDS011;8458;52.220;9.884;2022-09-16T08:35:59;1.17;;;0.60;;
16689;SDS011;8458;52.220;9.884;2022-09-16T08:38:26;1.70;;;0.57;;
16689;SDS011;8458;52.220;9.884;2022-09-16T08:40:54;2.07;;;0.70;;
16689;SDS011;8458;52.220;9.884;2022-09-16T08:43:27;2.40;;;0.53;;
16689;SDS011;8458;52.220;9.884;2022-09-16T08:46:02;2.23;;;0.60;;
16689;SDS011;8458;52.220;9.884;2022-09-16T08:48:37;2.77;;;0.90;;
16689;SDS011;8458;52.220;9.884;2022-09-16T08:51:13;3.10;;;0.60;;
16689;SDS011;8458;52.220;9.884;2022-09-16T08:53:44;2.30;;;0.70;;
16689;SDS011;8458;52.220;9.884;2022-09-16T08:56:16;1.63;;;0.53;;
16689;SDS011;8458;52.220;9.884;2022-09-16T08:58:46;2.60;;;0.60;;
16689;SDS011;8458;52.220;9.884;2022-09-16T09:01:18;2.57;;;0.80;;
16689;SDS011;8458;52.220;9.884;2022-09-16T09:03:49;2.63;;;0.60;;
16689;SDS011;8458;52.220;9.884;2022-09-16T09:06:19;2.77;;;0.73;;
16689;SDS011;8458;52.220;9.884;2022-09-16T09:08:59;2.30;;;0.70;;
16689;SDS011;8458;52.220;9.884;2022-09-16T09:11:38;2.57;;;0.53;;
16689;SDS011;8458;52.220;9.884;2022-09-16T09:14:17;3.10;;;0.60;;
16689;SDS011;8458;52.220;9.884;2022-09-16T09:16:57;1.67;;;0.60;;
16689;SDS011;8458;52.220;9.884;2022-09-16T09:19:33;2.70;;;0.50;;
16689;SDS011;8458;52.220;9.884;2022-09-16T09:22:12;2.17;;;0.53;;
16689;SDS011;8458;52.220;9.884;2022-09-16T09:24:52;2.37;;;0.57;;
16689;SDS011;8458;52.220;9.884;2022-09-16T09:27:30;2.00;;;0.50;;
16689;SDS011;8458;52.220;9.884;2022-09-16T09:30:08;7.10;;;1.30;;
16689;SDS011;8458;52.220;9.884;2022-09-16T09:32:49;2.30;;;0.70;;
16689;SDS011;8458;52.220;9.884;2022-09-16T09:35:29;2.40;;;0.53;;
16689;SDS011;8458;52.220;9.884;2022-09-16T09:38:17;1.63;;;0.80;;
16689;SDS011;8458;52.220;9.884;2022-09-16T09:40:57;3.30;;;0.70;;
16689;SDS011;8458;52.220;9.884;2022-09-16T09:43:31;2.30;;;0.90;;
16689;SDS011;8458;52.220;9.884;2022-09-16T09:46:05;1.80;;;0.80;;
16689;SDS011;8458;52.220;9.884;2022-09-16T09:48:40;1.43;;;0.47;;
16689;SDS011;8458;52.220;9.884;2022-09-16T09:51:14;3.23;;;0.67;;
16689;SDS011;8458;52.220;9.884;2022-09-16T09:53:48;2.53;;;0.60;;
16689;SDS011;8458;52.220;9.884;2022-09-16T09:56:19;1.40;;;0.67;;
16689;SDS011;8458;52.220;9.884;2022-09-16T09:58:53;2.20;;;0.50;;
16689;SDS011;8458;52.220;9.884;2022-09-16T10:01:26;2.07;;;0.60;;
16689;SDS011;8458;52.220;9.884;2022-09-16T10:03:54;1.53;;;0.40;;
16689;SDS011;8458;52.220;9.884;2022-09-16T10:06:22;2.90;;;0.77;;
16689;SDS011;8458;52.220;9.884;2022-09-16T10:08:51;2.57;;;0.70;;
16689;SDS011;8458;52.220;9.884;2022-09-16T10:11:22;2.67;;;0.80;;
16689;SDS011;8458;52.220;9.884;2022-09-16T10:13:51;2.27;;;0.60;;
16689;SDS011;8458;52.220;9.884;2022-09-16T10:16:20;3.93;;;0.90;;
16689;SDS011;8458;52.220;9.884;2022-09-16T10:18:54;2.10;;;0.60;;
16689;SDS011;8458;52.220;9.884;2022-09-16T10:21:35;3.17;;;0.90;;
16689;SDS011;8458;52.220;9.884;2022-09-16T10:24:18;2.03;;;0.60;;
16689;SDS011;8458;52.220;9.884;2022-09-16T10:26:52;2.60;;;0.70;;
16689;SDS011;8458;52.220;9.884;2022-09-16T10:29:19;1.90;;;0.50;;
16689;SDS011;8458;52.220;9.884;2022-09-16T10:31:45;5.53;;;0.90;;
16689;SDS011;8458;52.220;9.884;2022-09-16T10:34:22;1.97;;;0.60;;
16689;SDS011;8458;52.220;9.884;2022-09-16T10:36:58;3.17;;;0.77;;
16689;SDS011;8458;52.220;9.884;2022-09-16T10:39:26;2.47;;;0.60;;
16689;SDS011;8458;52.220;9.884;2022-09-16T10:41:54;2.80;;;0.77;;
16689;SDS011;8458;52.220;9.884;2022-09-16T10:44:22;2.00;;;0.80;;
16689;SDS011;8458;52.220;9.884;2022-09-16T10:46:52;2.23;;;0.70;;
16689;SDS011;8458;52.220;9.884;2022-09-16T10:49:24;2.40;;;0.80;;
16689;SDS011;8458;52.220;9.884;2022-09-16T10:52:05;1.67;;;0.60;;
16689;SDS011;8458;52.220;9.884;2022-09-16T10:54:34;1.23;;;0.40;;
16689;SDS011;8458;52.220;9.884;2022-09-16T10:57:00;1.47;;;0.40;;
16689;SDS011;8458;52.220;9.884;2022-09-16T10:59:27;2.30;;;0.83;;
16689;SDS011;8458;52.220;9.884;2022-09-16T11:01:55;1.73;;;0.50;;
16689;SDS011;8458;52.220;9.884;2022-09-16T11:07:25;2.30;;;0.47;;
16689;SDS011;8458;52.220;9.884;2022-09-16T11:10:01;2.10;;;0.67;;
16689;SDS011;8458;52.220;9.884;2022-09-16T11:15:33;2.87;;;0.57;;
16689;SDS011;8458;52.220;9.884;2022-09-16T11:18:13;1.67;;;0.50;;
16689;SDS011;8458;52.220;9.884;2022-09-16T11:20:57;3.13;;;0.70;;
16689;SDS011;8458;52.220;9.884;2022-09-16T11:23:52;2.77;;;0.60;;
16689;SDS011;8458;52.220;9.884;2022-09-16T11:26:29;1.60;;;0.57;;
16689;SDS011;8458;52.220;9.884;2022-09-16T11:29:06;1.77;;;0.43;;
16689;SDS011;8458;52.220;9.884;2022-09-16T11:31:46;1.33;;;0.53;;
16689;SDS011;8458;52.220;9.884;2022-09-16T11:34:22;2.07;;;0.60;;
16689;SDS011;8458;52.220;9.884;2022-09-16T11:37:11;3.40;;;0.80;;
16689;SDS011;8458;52.220;9.884;2022-09-16T11:39:49;2.90;;;0.73;;
16689;SDS011;8458;52.220;9.884;2022-09-16T11:42:30;3.13;;;0.97;;
16689;SDS011;8458;52.220;9.884;2022-09-16T11:45:02;1.30;;;0.37;;
16689;SDS011;8458;52.220;9.884;2022-09-16T11:47:41;2.27;;;0.60;;
16689;SDS011;8458;52.220;9.884;2022-09-16T11:50:19;1.93;;;0.60;;
16689;SDS011;8458;52.220;9.884;2022-09-16T11:52:58;1.37;;;0.70;;
16689;SDS011;8458;52.220;9.884;2022-09-16T11:55:45;1.97;;;0.40;;
16689;SDS011;8458;52.220;9.884;2022-09-16T11:58:26;1.70;;;0.50;;
16689;SDS011;8458;52.220;9.884;2022-09-16T12:01:01;2.27;;;0.70;;
16689;SDS011;8458;52.220;9.884;2022-09-16T12:03:36;1.20;;;0.40;;
16689;SDS011;8458;52.220;9.884;2022-09-16T12:06:09;1.77;;;0.50;;
16689;SDS011;8458;52.220;9.884;2022-09-16T12:08:43;4.00;;;0.67;;
16689;SDS011;8458;52.220;9.884;2022-09-16T12:11:18;2.10;;;0.70;;
16689;SDS011;8458;52.220;9.884;2022-09-16T12:13:48;2.17;;;0.57;;
16689;SDS011;8458;52.220;9.884;2022-09-16T12:16:19;1.53;;;0.57;;
16689;SDS011;8458;52.220;9.884;2022-09-16T12:18:50;2.70;;;0.60;;
16689;SDS011;8458;52.220;9.884;2022-09-16T12:21:21;3.23;;;0.50;;
16689;SDS011;8458;52.220;9.884;2022-09-16T12:23:53;2.83;;;0.70;;
16689;SDS011;8458;52.220;9.884;2022-09-16T12:26:25;1.40;;;0.40;;
16689;SDS011;8458;52.220;9.884;2022-09-16T12:29:00;1.80;;;0.50;;
16689;SDS011;8458;52.220;9.884;2022-09-16T12:31:32;2.20;;;0.50;;
16689;SDS011;8458;52.220;9.884;2022-09-16T12:34:03;2.27;;;0.50;;
16689;SDS011;8458;52.220;9.884;2022-09-16T12:36:36;2.10;;;0.50;;
16689;SDS011;8458;52.220;9.884;2022-09-16T12:39:07;2.03;;;0.60;;
16689;SDS011;8458;52.220;9.884;2022-09-16T12:41:50;3.23;;;0.60;;
16689;SDS011;8458;52.220;9.884;2022-09-16T12:50:49;2.53;;;0.60;;
16689;SDS011;8458;52.220;9.884;2022-09-16T12:56:26;1.50;;;0.53;;
16689;SDS011;8458;52.220;9.884;2022-09-16T12:59:10;2.23;;;0.50;;
16689;SDS011;8458;52.220;9.884;2022-09-16T13:01:49;2.03;;;0.60;;
16689;SDS011;8458;52.220;9.884;2022-09-16T13:04:18;3.00;;;0.50;;
16689;SDS011;8458;52.220;9.884;2022-09-16T13:06:50;1.17;;;0.50;;
16689;SDS011;8458;52.220;9.884;2022-09-16T13:09:21;1.27;;;0.40;;
16689;SDS011;8458;52.220;9.884;2022-09-16T13:11:54;1.70;;;0.40;;
16689;SDS011;8458;52.220;9.884;2022-09-16T13:14:26;2.37;;;0.40;;
16689;SDS011;8458;52.220;9.884;2022-09-16T13:16:55;1.97;;;0.60;;
16689;SDS011;8458;52.220;9.884;2022-09-16T13:19:29;1.90;;;0.50;;
16689;SDS011;8458;52.220;9.884;2022-09-16T13:22:04;1.50;;;0.50;;
16689;SDS011;8458;52.220;9.884;2022-09-16T13:24:43;1.53;;;0.80;;
16689;SDS011;8458;52.220;9.884;2022-09-16T13:27:21;1.30;;;0.43;;
16689;SDS011;8458;52.220;9.884;2022-09-16T13:29:51;3.87;;;0.60;;
16689;SDS011;8458;52.220;9.884;2022-09-16T13:32:25;1.90;;;0.50;;
16689;SDS011;8458;52.220;9.884;2022-09-16T13:34:59;3.10;;;0.60;;
16689;SDS011;8458;52.220;9.884;2022-09-16T13:37:26;1.77;;;0.60;;
16689;SDS011;8458;52.220;9.884;2022-09-16T13:39:53;2.17;;;0.77;;
16689;SDS011;8458;52.220;9.884;2022-09-16T13:42:21;0.97;;;0.40;;
16689;SDS011;8458;52.220;9.884;2022-09-16T13:44:48;1.53;;;0.50;;
16689;SDS011;8458;52.220;9.884;2022-09-16T13:47:16;0.80;;;0.40;;
16689;SDS011;8458;52.220;9.884;2022-09-16T13:49:54;1.63;;;0.40;;
16689;SDS011;8458;52.220;9.884;2022-09-16T13:52:23;2.40;;;0.40;;
16689;SDS011;8458;52.220;9.884;2022-09-16T13:54:53;0.70;;;0.40;;
16689;SDS011;8458;52.220;9.884;2022-09-16T13:57:27;1.00;;;0.40;;
16689;SDS011;8458;52.220;9.884;2022-09-16T14:00:06;1.20;;;0.40;;
16689;SDS011;8458;52.220;9.884;2022-09-16T14:02:47;2.63;;;0.50;;
16689;SDS011;8458;52.220;9.884;2022-09-16T14:05:40;1.43;;;0.60;;
16689;SDS011;8458;52.220;9.884;2022-09-16T14:08:16;1.73;;;0.50;;
16689;SDS011;8458;52.220;9.884;2022-09-16T14:10:51;1.37;;;0.40;;
16689;SDS011;8458;52.220;9.884;2022-09-16T14:13:23;2.07;;;0.50;;
16689;SDS011;8458;52.220;9.884;2022-09-16T14:15:57;3.03;;;0.50;;
16689;SDS011;8458;52.220;9.884;2022-09-16T14:18:25;3.67;;;0.70;;
16689;SDS011;8458;52.220;9.884;2022-09-16T14:20:58;1.87;;;0.50;;
16689;SDS011;8458;52.220;9.884;2022-09-16T14:23:27;1.00;;;0.40;;
16689;SDS011;8458;52.220;9.884;2022-09-16T14:25:56;1.87;;;0.50;;
16689;SDS011;8458;52.220;9.884;2022-09-16T14:28:35;1.03;;;0.30;;
16689;SDS011;8458;52.220;9.884;2022-09-16T14:31:05;2.00;;;0.40;;
16689;SDS011;8458;52.220;9.884;2022-09-16T14:33:35;0.30;;;0.20;;
16689;SDS011;8458;52.220;9.884;2022-09-16T14:36:07;0.30;;;0.30;;
16689;SDS011;8458;52.220;9.884;2022-09-16T14:38:37;1.70;;;0.30;;
16689;SDS011;8458;52.220;9.884;2022-09-16T14:41:08;0.93;;;0.30;;
16689;SDS011;8458;52.220;9.884;2022-09-16T14:43:37;1.50;;;0.37;;
16689;SDS011;8458;52.220;9.884;2022-09-16T14:46:04;0.83;;;0.30;;
16689;SDS011;8458;52.220;9.884;2022-09-16T14:48:34;0.60;;;0.30;;
16689;SDS011;8458;52.220;9.884;2022-09-16T14:51:04;1.10;;;0.33;;
16689;SDS011;8458;52.220;9.884;2022-09-16T14:53:39;1.47;;;0.30;;
16689;SDS011;8458;52.220;9.884;2022-09-16T14:56:14;2.27;;;0.30;;
16689;SDS011;8458;52.220;9.884;2022-09-16T14:58:45;0.70;;;0.30;;
16689;SDS011;8458;52.220;9.884;2022-09-16T15:01:13;1.13;;;0.40;;
16689;SDS011;8458;52.220;9.884;2022-09-16T15:03:44;1.07;;;0.37;;
16689;SDS011;8458;52.220;9.884;2022-09-16T15:06:17;0.87;;;0.13;;
16689;SDS011;8458;52.220;9.884;2022-09-16T15:08:47;0.60;;;0.20;;
16689;SDS011;8458;52.220;9.884;2022-09-16T15:11:17;0.40;;;0.20;;
16689;SDS011;8458;52.220;9.884;2022-09-16T15:13:47;0.47;;;0.20;;
16689;SDS011;8458;52.220;9.884;2022-09-16T15:16:14;0.30;;;0.20;;
16689;SDS011;8458;52.220;9.884;2022-09-16T15:18:50;0.83;;;0.30;;
16689;SDS011;8458;52.220;9.884;2022-09-16T15:21:19;0.80;;;0.20;;
16689;SDS011;8458;52.220;9.884;2022-09-16T15:23:50;0.67;;;0.30;;
16689;SDS011;8458;52.220;9.884;2022-09-16T15:26:18;0.40;;;0.20;;
16689;SDS011;8458;52.220;9.884;2022-09-16T15:28:49;0.70;;;0.27;;
16689;SDS011;8458;52.220;9.884;2022-09-16T15:31:24;0.23;;;0.20;;
16689;SDS011;8458;52.220;9.884;2022-09-16T15:33:57;1.77;;;0.40;;
16689;SDS011;8458;52.220;9.884;2022-09-16T15:36:31;1.13;;;0.37;;
16689;SDS011;8458;52.220;9.884;2022-09-16T15:39:00;1.67;;;0.40;;
16689;SDS011;8458;52.220;9.884;2022-09-16T15:41:26;0.83;;;0.33;;
16689;SDS011;8458;52.220;9.884;2022-09-16T15:43:56;1.47;;;0.50;;
16689;SDS011;8458;52.220;9.884;2022-09-16T15:46:23;1.90;;;0.60;;
16689;SDS011;8458;52.220;9.884;2022-09-16T15:48:50;1.93;;;0.60;;
16689;SDS011;8458;52.220;9.884;2022-09-16T15:51:21;2.33;;;0.50;;